Weather at Cabrera Airport

Public forecast

Using degrees Celsius for public forecast. Weather courtesy of forecast.io.

Closest aviation weather report (METAR) to Cabrera Airport

Closest report is Ignacio Agramonte International Airport, 32.6 nm (60.4 km) ENE.

2024/04/22 10:50 (retrieved 1 hour ago)

MUCM 221050Z 04004KT 7000 VCFG FEW020 21/20 Q1014

Closest aviation forecast (TAF) to Cabrera Airport

Closest forecast is Ignacio Agramonte International Airport, 32.6 nm (60.4 km) ENE.

2024/04/22 12:15 (retrieved 0 seconds ago)

TAF MUCM 221100Z 2212/2312 VRB04KT 9000 FEW020 TEMPO 2220/2224 FEW018TCU BKN020